sensor_id;sensor_type;location;lat;lon;timestamp;pressure;altitude;pressure_sealevel;temperature;humidity
23241;BME280;11789;53.482;9.862;2023-02-19T00:01:08;101561.75;;;4.06;100.00
23241;BME280;11789;53.482;9.862;2023-02-19T00:03:35;101557.31;;;4.02;100.00
23241;BME280;11789;53.482;9.862;2023-02-19T00:06:05;101563.34;;;4.04;100.00
23241;BME280;11789;53.482;9.862;2023-02-19T00:08:32;101566.78;;;4.05;100.00
23241;BME280;11789;53.482;9.862;2023-02-19T00:11:10;101572.84;;;4.07;100.00
23241;BME280;11789;53.482;9.862;2023-02-19T00:13:38;101566.09;;;4.09;100.00
23241;BME280;11789;53.482;9.862;2023-02-19T00:16:23;101561.63;;;4.03;100.00
23241;BME280;11789;53.482;9.862;2023-02-19T00:18:50;101566.56;;;3.99;100.00
23241;BME280;11789;53.482;9.862;2023-02-19T00:21:16;101571.59;;;3.96;100.00
23241;BME280;11789;53.482;9.862;2023-02-19T00:23:42;101568.94;;;3.94;100.00
23241;BME280;11789;53.482;9.862;2023-02-19T00:26:10;101562.87;;;3.90;100.00
23241;BME280;11789;53.482;9.862;2023-02-19T00:28:36;101570.53;;;3.90;100.00
23241;BME280;11789;53.482;9.862;2023-02-19T00:31:05;101566.38;;;3.94;100.00
23241;BME280;11789;53.482;9.862;2023-02-19T00:33:31;101569.06;;;3.97;100.00
23241;BME280;11789;53.482;9.862;2023-02-19T00:36:03;101558.03;;;3.98;100.00
23241;BME280;11789;53.482;9.862;2023-02-19T00:38:30;101553.72;;;3.97;100.00
23241;BME280;11789;53.482;9.862;2023-02-19T00:40:57;101560.41;;;3.94;100.00
23241;BME280;11789;53.482;9.862;2023-02-19T00:43:23;101561.22;;;3.93;100.00
23241;BME280;11789;53.482;9.862;2023-02-19T00:45:48;101568.06;;;3.94;100.00
23241;BME280;11789;53.482;9.862;2023-02-19T00:48:14;101568.94;;;3.94;100.00
23241;BME280;11789;53.482;9.862;2023-02-19T00:50:39;101568.22;;;3.97;100.00
23241;BME280;11789;53.482;9.862;2023-02-19T00:53:05;101569.94;;;3.98;100.00
23241;BME280;11789;53.482;9.862;2023-02-19T00:55:30;101571.69;;;3.99;100.00
23241;BME280;11789;53.482;9.862;2023-02-19T00:57:56;101570.00;;;3.99;100.00
23241;BME280;11789;53.482;9.862;2023-02-19T01:00:21;101571.69;;;3.99;100.00
23241;BME280;11789;53.482;9.862;2023-02-19T01:02:46;101576.78;;;3.99;100.00
23241;BME280;11789;53.482;9.862;2023-02-19T01:05:12;101579.41;;;4.00;100.00
23241;BME280;11789;53.482;9.862;2023-02-19T01:07:37;101589.63;;;4.00;100.00
23241;BME280;11789;53.482;9.862;2023-02-19T01:10:03;101587.06;;;4.00;100.00
23241;BME280;11789;53.482;9.862;2023-02-19T01:12:29;101577.66;;;3.99;100.00
23241;BME280;11789;53.482;9.862;2023-02-19T01:14:56;101577.66;;;3.99;100.00
23241;BME280;11789;53.482;9.862;2023-02-19T01:17:21;101584.44;;;3.97;100.00
23241;BME280;11789;53.482;9.862;2023-02-19T01:19:47;101580.19;;;3.98;100.00
23241;BME280;11789;53.482;9.862;2023-02-19T01:22:12;101574.19;;;3.97;100.00
23241;BME280;11789;53.482;9.862;2023-02-19T01:24:38;101575.87;;;3.97;100.00
23241;BME280;11789;53.482;9.862;2023-02-19T01:27:03;101573.19;;;3.94;100.00
23241;BME280;11789;53.482;9.862;2023-02-19T01:29:29;101575.53;;;3.87;100.00
23241;BME280;11789;53.482;9.862;2023-02-19T01:31:54;101572.84;;;3.84;100.00
23241;BME280;11789;53.482;9.862;2023-02-19T01:34:20;101572.75;;;3.81;100.00
23241;BME280;11789;53.482;9.862;2023-02-19T01:36:45;101570.94;;;3.79;100.00
23241;BME280;11789;53.482;9.862;2023-02-19T01:39:11;101572.75;;;3.81;100.00
23241;BME280;11789;53.482;9.862;2023-02-19T01:41:38;101571.88;;;3.81;100.00
23241;BME280;11789;53.482;9.862;2023-02-19T01:46:40;101573.31;;;3.74;100.00
23241;BME280;11789;53.482;9.862;2023-02-19T01:49:08;101564.03;;;3.76;100.00
23241;BME280;11789;53.482;9.862;2023-02-19T01:51:37;101566.69;;;3.79;100.00
23241;BME280;11789;53.482;9.862;2023-02-19T01:54:05;101563.38;;;3.82;100.00
23241;BME280;11789;53.482;9.862;2023-02-19T01:56:33;101559.78;;;3.77;100.00
23241;BME280;11789;53.482;9.862;2023-02-19T01:59:00;101564.03;;;3.76;100.00
23241;BME280;11789;53.482;9.862;2023-02-19T02:01:26;101568.19;;;3.74;100.00
23241;BME280;11789;53.482;9.862;2023-02-19T02:03:52;101568.78;;;3.67;100.00
23241;BME280;11789;53.482;9.862;2023-02-19T02:06:23;101562.66;;;3.63;100.00
23241;BME280;11789;53.482;9.862;2023-02-19T02:08:53;101566.19;;;3.66;100.00
23241;BME280;11789;53.482;9.862;2023-02-19T02:11:50;101563.50;;;3.62;100.00
23241;BME280;11789;53.482;9.862;2023-02-19T02:14:26;101560.88;;;3.61;100.00
23241;BME280;11789;53.482;9.862;2023-02-19T02:22:14;101561.34;;;3.51;100.00
23241;BME280;11789;53.482;9.862;2023-02-19T02:27:52;101566.31;;;3.48;100.00
23241;BME280;11789;53.482;9.862;2023-02-19T02:30:38;101561.97;;;3.45;100.00
23241;BME280;11789;53.482;9.862;2023-02-19T02:33:13;101566.13;;;3.43;100.00
23241;BME280;11789;53.482;9.862;2023-02-19T02:35:49;101569.47;;;3.41;100.00
23241;BME280;11789;53.482;9.862;2023-02-19T02:38:17;101572.87;;;3.41;100.00
23241;BME280;11789;53.482;9.862;2023-02-19T02:40:45;101576.31;;;3.42;100.00
23241;BME280;11789;53.482;9.862;2023-02-19T02:43:12;101574.69;;;3.44;100.00
23241;BME280;11789;53.482;9.862;2023-02-19T02:45:38;101577.91;;;3.39;100.00
23241;BME280;11789;53.482;9.862;2023-02-19T02:50:59;101581.00;;;3.31;100.00
23241;BME280;11789;53.482;9.862;2023-02-19T02:53:53;101579.31;;;3.31;100.00
23241;BME280;11789;53.482;9.862;2023-02-19T02:56:40;101569.97;;;3.32;100.00
23241;BME280;11789;53.482;9.862;2023-02-19T02:59:09;101570.81;;;3.32;100.00
23241;BME280;11789;53.482;9.862;2023-02-19T03:01:48;101577.66;;;3.33;100.00
23241;BME280;11789;53.482;9.862;2023-02-19T03:07:37;101579.94;;;3.26;100.00
23241;BME280;11789;53.482;9.862;2023-02-19T03:10:07;101591.03;;;3.26;100.00
23241;BME280;11789;53.482;9.862;2023-02-19T03:12:37;101592.53;;;3.21;100.00
23241;BME280;11789;53.482;9.862;2023-02-19T03:15:27;101593.19;;;3.17;100.00
23241;BME280;11789;53.482;9.862;2023-02-19T03:18:13;101592.97;;;3.11;100.00
23241;BME280;11789;53.482;9.862;2023-02-19T03:21:00;101598.00;;;3.09;100.00
23241;BME280;11789;53.482;9.862;2023-02-19T03:23:28;101592.97;;;3.11;100.00
23241;BME280;11789;53.482;9.862;2023-02-19T03:26:16;101594.88;;;3.17;100.00
23241;BME280;11789;53.482;9.862;2023-02-19T03:28:44;101599.25;;;3.19;100.00
23241;BME280;11789;53.482;9.862;2023-02-19T03:31:32;101602.78;;;3.23;100.00
23241;BME280;11789;53.482;9.862;2023-02-19T03:34:00;101606.22;;;3.23;100.00
23241;BME280;11789;53.482;9.862;2023-02-19T03:36:36;101607.91;;;3.23;100.00
23241;BME280;11789;53.482;9.862;2023-02-19T03:39:06;101612.91;;;3.20;100.00
23241;BME280;11789;53.482;9.862;2023-02-19T03:42:00;101624.25;;;3.26;100.00
23241;BME280;11789;53.482;9.862;2023-02-19T03:47:22;101627.09;;;3.34;100.00
23241;BME280;11789;53.482;9.862;2023-02-19T03:50:02;101616.81;;;3.32;100.00
23241;BME280;11789;53.482;9.862;2023-02-19T03:55:25;101619.56;;;3.16;100.00
23241;BME280;11789;53.482;9.862;2023-02-19T03:58:21;101616.16;;;3.16;100.00
23241;BME280;11789;53.482;9.862;2023-02-19T04:01:13;101612.97;;;3.21;100.00
23241;BME280;11789;53.482;9.862;2023-02-19T04:06:25;101622.31;;;3.21;100.00
23241;BME280;11789;53.482;9.862;2023-02-19T04:08:55;101620.69;;;3.23;100.00
23241;BME280;11789;53.482;9.862;2023-02-19T04:11:22;101629.34;;;3.26;100.00
23241;BME280;11789;53.482;9.862;2023-02-19T04:13:55;101640.50;;;3.28;100.00
23241;BME280;11789;53.482;9.862;2023-02-19T04:16:26;101638.75;;;3.27;100.00
23241;BME280;11789;53.482;9.862;2023-02-19T04:18:56;101639.53;;;3.25;100.00
23241;BME280;11789;53.482;9.862;2023-02-19T04:21:23;101640.13;;;3.19;100.00
23241;BME280;11789;53.482;9.862;2023-02-19T04:23:50;101648.59;;;3.18;100.00
23241;BME280;11789;53.482;9.862;2023-02-19T04:26:19;101657.22;;;3.20;100.00
23241;BME280;11789;53.482;9.862;2023-02-19T04:28:46;101666.72;;;3.24;100.00
23241;BME280;11789;53.482;9.862;2023-02-19T04:31:11;101670.91;;;3.22;100.00
23241;BME280;11789;53.482;9.862;2023-02-19T04:33:37;101675.31;;;3.25;100.00
23241;BME280;11789;53.482;9.862;2023-02-19T04:36:03;101684.56;;;3.23;100.00
23241;BME280;11789;53.482;9.862;2023-02-19T04:38:28;101686.25;;;3.22;100.00
23241;BME280;11789;53.482;9.862;2023-02-19T04:40:54;101696.41;;;3.21;100.00
23241;BME280;11789;53.482;9.862;2023-02-19T04:43:19;101697.28;;;3.21;100.00
23241;BME280;11789;53.482;9.862;2023-02-19T04:45:45;101694.84;;;3.24;100.00
23241;BME280;11789;53.482;9.862;2023-02-19T04:48:10;101699.84;;;3.21;100.00
23241;BME280;11789;53.482;9.862;2023-02-19T04:50:39;101702.44;;;3.23;100.00
23241;BME280;11789;53.482;9.862;2023-02-19T04:53:05;101706.69;;;3.22;100.00
23241;BME280;11789;53.482;9.862;2023-02-19T04:55:31;101707.50;;;3.21;100.00
23241;BME280;11789;53.482;9.862;2023-02-19T04:57:57;101705.63;;;3.17;100.00
23241;BME280;11789;53.482;9.862;2023-02-19T05:00:22;101705.56;;;3.16;100.00
23241;BME280;11789;53.482;9.862;2023-02-19T05:02:48;101719.88;;;3.12;100.00
23241;BME280;11789;53.482;9.862;2023-02-19T05:05:13;101716.50;;;3.13;100.00
23241;BME280;11789;53.482;9.862;2023-02-19T05:07:38;101716.47;;;3.11;100.00
23241;BME280;11789;53.482;9.862;2023-02-19T05:10:04;101724.94;;;3.10;100.00
23241;BME280;11789;53.482;9.862;2023-02-19T05:12:30;101725.00;;;3.12;100.00
23241;BME280;11789;53.482;9.862;2023-02-19T05:14:55;101724.13;;;3.11;100.00
23241;BME280;11789;53.482;9.862;2023-02-19T05:17:21;101713.84;;;3.10;100.00
23241;BME280;11789;53.482;9.862;2023-02-19T05:19:46;101717.87;;;3.05;100.00
23241;BME280;11789;53.482;9.862;2023-02-19T05:22:12;101720.34;;;3.03;100.00
23241;BME280;11789;53.482;9.862;2023-02-19T05:24:37;101720.09;;;2.97;100.00
23241;BME280;11789;53.482;9.862;2023-02-19T05:27:03;101715.59;;;2.92;100.00
23241;BME280;11789;53.482;9.862;2023-02-19T05:29:29;101727.53;;;2.93;100.00
23241;BME280;11789;53.482;9.862;2023-02-19T05:31:55;101737.66;;;2.90;100.00
23241;BME280;11789;53.482;9.862;2023-02-19T05:34:20;101731.56;;;2.87;100.00
23241;BME280;11789;53.482;9.862;2023-02-19T05:36:46;101737.66;;;2.90;100.00
23241;BME280;11789;53.482;9.862;2023-02-19T05:39:11;101743.34;;;2.84;100.00
23241;BME280;11789;53.482;9.862;2023-02-19T05:41:37;101747.38;;;2.79;100.00
23241;BME280;11789;53.482;9.862;2023-02-19T05:44:03;101756.53;;;2.74;100.00
23241;BME280;11789;53.482;9.862;2023-02-19T05:46:29;101757.91;;;2.67;100.00
23241;BME280;11789;53.482;9.862;2023-02-19T05:48:54;101762.78;;;2.63;100.00
23241;BME280;11789;53.482;9.862;2023-02-19T05:51:22;101758.94;;;2.53;100.00
23241;BME280;11789;53.482;9.862;2023-02-19T05:53:48;101753.28;;;2.41;100.00
23241;BME280;11789;53.482;9.862;2023-02-19T05:56:38;101763.34;;;2.38;100.00
23241;BME280;11789;53.482;9.862;2023-02-19T05:59:07;101773.53;;;2.38;100.00
23241;BME280;11789;53.482;9.862;2023-02-19T06:01:37;101773.41;;;2.34;100.00
23241;BME280;11789;53.482;9.862;2023-02-19T06:04:03;101780.91;;;2.31;100.00
23241;BME280;11789;53.482;9.862;2023-02-19T06:06:29;101785.78;;;2.27;100.00
23241;BME280;11789;53.482;9.862;2023-02-19T06:08:54;101793.22;;;2.22;100.00
23241;BME280;11789;53.482;9.862;2023-02-19T06:11:20;101803.94;;;2.15;100.00
23241;BME280;11789;53.482;9.862;2023-02-19T06:13:46;101806.84;;;2.05;100.00
23241;BME280;11789;53.482;9.862;2023-02-19T06:16:11;101807.88;;;2.08;100.00
23241;BME280;11789;53.482;9.862;2023-02-19T06:18:37;101819.09;;;2.12;100.00
23241;BME280;11789;53.482;9.862;2023-02-19T06:21:06;101831.84;;;2.12;100.00
23241;BME280;11789;53.482;9.862;2023-02-19T06:23:32;101832.66;;;2.11;100.00
23241;BME280;11789;53.482;9.862;2023-02-19T06:28:31;101853.56;;;2.04;100.00
23241;BME280;11789;53.482;9.862;2023-02-19T06:30:59;101859.47;;;2.03;100.00
23241;BME280;11789;53.482;9.862;2023-02-19T06:33:25;101852.47;;;1.99;100.00
23241;BME280;11789;53.482;9.862;2023-02-19T06:35:52;101865.13;;;1.97;100.00
23241;BME280;11789;53.482;9.862;2023-02-19T06:38:20;101864.91;;;1.93;100.00
23241;BME280;11789;53.482;9.862;2023-02-19T06:40:45;101873.28;;;1.90;100.00
23241;BME280;11789;53.482;9.862;2023-02-19T06:43:10;101884.09;;;1.86;100.00
23241;BME280;11789;53.482;9.862;2023-02-19T06:45:36;101886.75;;;1.88;100.00
23241;BME280;11789;53.482;9.862;2023-02-19T06:48:01;101881.41;;;1.83;100.00
23241;BME280;11789;53.482;9.862;2023-02-19T06:50:27;101888.09;;;1.81;100.00
23241;BME280;11789;53.482;9.862;2023-02-19T06:52:52;101893.44;;;1.86;100.00
23241;BME280;11789;53.482;9.862;2023-02-19T06:55:17;101895.91;;;1.84;100.00
23241;BME280;11789;53.482;9.862;2023-02-19T06:57:43;101901.09;;;1.86;100.00
23241;BME280;11789;53.482;9.862;2023-02-19T07:00:09;101913.03;;;1.87;100.00
23241;BME280;11789;53.482;9.862;2023-02-19T07:02:34;101911.28;;;1.86;100.00
23241;BME280;11789;53.482;9.862;2023-02-19T07:05:00;101907.84;;;1.85;100.00
23241;BME280;11789;53.482;9.862;2023-02-19T07:07:25;101914.06;;;1.90;100.00
23241;BME280;11789;53.482;9.862;2023-02-19T07:09:51;101918.59;;;1.96;100.00
23241;BME280;11789;53.482;9.862;2023-02-19T07:12:16;101928.81;;;1.96;100.00
23241;BME280;11789;53.482;9.862;2023-02-19T07:14:42;101930.66;;;1.98;100.00
23241;BME280;11789;53.482;9.862;2023-02-19T07:17:07;101929.91;;;2.01;100.00
23241;BME280;11789;53.482;9.862;2023-02-19T07:19:32;101936.19;;;2.07;100.00
23241;BME280;11789;53.482;9.862;2023-02-19T07:21:58;101947.50;;;2.13;100.00
23241;BME280;11789;53.482;9.862;2023-02-19T07:24:23;101949.72;;;2.23;100.00
23241;BME280;11789;53.482;9.862;2023-02-19T07:26:49;101950.88;;;2.46;100.00
23241;BME280;11789;53.482;9.862;2023-02-19T07:29:14;101961.66;;;2.74;100.00
23241;BME280;11789;53.482;9.862;2023-02-19T07:31:40;101970.69;;;3.21;100.00
23241;BME280;11789;53.482;9.862;2023-02-19T07:34:05;101967.22;;;4.55;100.00
23241;BME280;11789;53.482;9.862;2023-02-19T07:36:31;101964.78;;;6.13;100.00
23241;BME280;11789;53.482;9.862;2023-02-19T07:38:57;101974.44;;;6.46;96.95
23241;BME280;11789;53.482;9.862;2023-02-19T07:41:24;101968.38;;;6.18;95.30
23241;BME280;11789;53.482;9.862;2023-02-19T07:43:50;101981.19;;;5.72;95.56
23241;BME280;11789;53.482;9.862;2023-02-19T07:46:16;101985.28;;;5.89;96.92
23241;BME280;11789;53.482;9.862;2023-02-19T07:48:42;101989.87;;;6.22;95.49
23241;BME280;11789;53.482;9.862;2023-02-19T07:51:14;101989.34;;;6.07;94.36
23241;BME280;11789;53.482;9.862;2023-02-19T07:53:47;101994.31;;;5.80;95.32
23241;BME280;11789;53.482;9.862;2023-02-19T07:56:17;101998.12;;;5.22;96.90
23241;BME280;11789;53.482;9.862;2023-02-19T07:58:42;102015.97;;;4.77;100.00
23241;BME280;11789;53.482;9.862;2023-02-19T08:01:16;102018.12;;;4.47;100.00
23241;BME280;11789;53.482;9.862;2023-02-19T08:03:42;102017.13;;;4.24;100.00
23241;BME280;11789;53.482;9.862;2023-02-19T08:06:09;102020.91;;;4.13;100.00
23241;BME280;11789;53.482;9.862;2023-02-19T08:08:36;102022.44;;;4.09;100.00
23241;BME280;11789;53.482;9.862;2023-02-19T08:11:03;102032.47;;;4.24;100.00
23241;BME280;11789;53.482;9.862;2023-02-19T08:13:48;102033.69;;;5.35;100.00
23241;BME280;11789;53.482;9.862;2023-02-19T08:16:15;102029.44;;;7.58;92.43
23241;BME280;11789;53.482;9.862;2023-02-19T08:18:42;102020.31;;;8.92;83.71
23241;BME280;11789;53.482;9.862;2023-02-19T08:21:08;102019.84;;;9.48;78.12
23241;BME280;11789;53.482;9.862;2023-02-19T08:23:34;102021.00;;;8.87;81.04
23241;BME280;11789;53.482;9.862;2023-02-19T08:26:00;102013.37;;;10.53;73.93
23241;BME280;11789;53.482;9.862;2023-02-19T08:28:27;102015.59;;;9.48;75.46
23241;BME280;11789;53.482;9.862;2023-02-19T08:30:58;102023.88;;;7.72;82.90
23241;BME280;11789;53.482;9.862;2023-02-19T08:33:23;102024.13;;;6.97;88.33
23241;BME280;11789;53.482;9.862;2023-02-19T08:35:49;102023.28;;;7.52;88.49
23241;BME280;11789;53.482;9.862;2023-02-19T08:38:14;102036.59;;;6.85;91.74
23241;BME280;11789;53.482;9.862;2023-02-19T08:40:43;102035.28;;;7.52;90.73
23241;BME280;11789;53.482;9.862;2023-02-19T08:43:12;102037.25;;;10.38;77.13
23241;BME280;11789;53.482;9.862;2023-02-19T08:45:41;102038.22;;;11.48;70.32
23241;BME280;11789;53.482;9.862;2023-02-19T08:48:08;102033.53;;;12.62;65.11
23241;BME280;11789;53.482;9.862;2023-02-19T08:50:34;102044.47;;;12.30;64.67
23241;BME280;11789;53.482;9.862;2023-02-19T08:53:01;102040.94;;;10.49;69.27
23241;BME280;11789;53.482;9.862;2023-02-19T08:55:27;102049.75;;;9.76;73.94
23241;BME280;11789;53.482;9.862;2023-02-19T08:57:52;102052.09;;;10.98;68.72
23241;BME280;11789;53.482;9.862;2023-02-19T09:00:18;102061.47;;;9.61;73.15
23241;BME280;11789;53.482;9.862;2023-02-19T09:02:46;102064.50;;;8.73;78.85
23241;BME280;11789;53.482;9.862;2023-02-19T09:05:11;102073.09;;;11.73;69.83
23241;BME280;11789;53.482;9.862;2023-02-19T09:07:37;102070.94;;;14.07;60.24
23241;BME280;11789;53.482;9.862;2023-02-19T09:10:04;102070.06;;;14.03;57.99
23241;BME280;11789;53.482;9.862;2023-02-19T09:12:29;102069.38;;;14.49;56.81
23241;BME280;11789;53.482;9.862;2023-02-19T09:14:55;102076.97;;;14.03;56.44
23241;BME280;11789;53.482;9.862;2023-02-19T09:17:20;102085.91;;;14.60;54.91
23241;BME280;11789;53.482;9.862;2023-02-19T09:19:46;102088.53;;;15.15;52.55
23241;BME280;11789;53.482;9.862;2023-02-19T09:22:11;102086.72;;;15.91;50.16
23241;BME280;11789;53.482;9.862;2023-02-19T09:24:37;102088.53;;;14.80;52.07
23241;BME280;11789;53.482;9.862;2023-02-19T09:27:02;102102.56;;;12.46;57.39
23241;BME280;11789;53.482;9.862;2023-02-19T09:29:28;102106.34;;;10.94;63.15
23241;BME280;11789;53.482;9.862;2023-02-19T09:31:58;102112.88;;;9.88;70.50
23241;BME280;11789;53.482;9.862;2023-02-19T09:34:26;102116.81;;;10.12;70.82
23241;BME280;11789;53.482;9.862;2023-02-19T09:36:52;102115.81;;;10.45;70.67
23241;BME280;11789;53.482;9.862;2023-02-19T09:39:19;102119.88;;;10.33;69.84
23241;BME280;11789;53.482;9.862;2023-02-19T09:41:48;102123.97;;;10.24;71.08
23241;BME280;11789;53.482;9.862;2023-02-19T09:44:23;102118.44;;;10.08;71.90
23241;BME280;11789;53.482;9.862;2023-02-19T09:46:51;102133.06;;;8.98;73.07
23241;BME280;11789;53.482;9.862;2023-02-19T09:49:27;102128.47;;;8.56;77.34
23241;BME280;11789;53.482;9.862;2023-02-19T09:52:06;102140.06;;;8.40;77.25
23241;BME280;11789;53.482;9.862;2023-02-19T09:54:36;102142.91;;;7.65;80.18
23241;BME280;11789;53.482;9.862;2023-02-19T09:57:03;102146.56;;;7.19;81.26
23241;BME280;11789;53.482;9.862;2023-02-19T09:59:50;102154.22;;;6.92;84.15
23241;BME280;11789;53.482;9.862;2023-02-19T10:02:19;102164.78;;;6.76;86.77
23241;BME280;11789;53.482;9.862;2023-02-19T10:04:47;102179.69;;;6.62;88.14
23241;BME280;11789;53.482;9.862;2023-02-19T10:07:14;102184.50;;;6.53;88.66
23241;BME280;11789;53.482;9.862;2023-02-19T10:09:42;102185.75;;;6.40;90.13
23241;BME280;11789;53.482;9.862;2023-02-19T10:12:18;102198.53;;;6.39;91.43
23241;BME280;11789;53.482;9.862;2023-02-19T10:14:49;102198.38;;;6.34;92.70
23241;BME280;11789;53.482;9.862;2023-02-19T10:17:23;102201.97;;;6.39;93.17
23241;BME280;11789;53.482;9.862;2023-02-19T10:19:50;102208.47;;;6.30;92.47
23241;BME280;11789;53.482;9.862;2023-02-19T10:22:16;102199.22;;;6.12;92.23
23241;BME280;11789;53.482;9.862;2023-02-19T10:24:42;102209.37;;;5.88;92.09
23241;BME280;11789;53.482;9.862;2023-02-19T10:27:13;102211.25;;;5.92;94.06
23241;BME280;11789;53.482;9.862;2023-02-19T10:29:38;102213.19;;;5.98;95.85
23241;BME280;11789;53.482;9.862;2023-02-19T10:32:23;102212.87;;;5.90;95.36
23241;BME280;11789;53.482;9.862;2023-02-19T10:35:13;102220.81;;;5.76;93.09
23241;BME280;11789;53.482;9.862;2023-02-19T10:37:44;102219.81;;;5.72;94.45
23241;BME280;11789;53.482;9.862;2023-02-19T10:40:18;102229.59;;;5.81;94.26
23241;BME280;11789;53.482;9.862;2023-02-19T10:42:47;102226.28;;;5.83;94.79
23241;BME280;11789;53.482;9.862;2023-02-19T10:45:54;102227.78;;;5.78;91.28
23241;BME280;11789;53.482;9.862;2023-02-19T10:48:45;102225.78;;;5.71;89.45
23241;BME280;11789;53.482;9.862;2023-02-19T10:51:11;102232.72;;;5.73;89.78
23241;BME280;11789;53.482;9.862;2023-02-19T10:53:46;102237.97;;;5.77;90.17
23241;BME280;11789;53.482;9.862;2023-02-19T10:56:24;102235.41;;;5.77;88.80
23241;BME280;11789;53.482;9.862;2023-02-19T10:58:50;102243.19;;;5.78;88.09
23241;BME280;11789;53.482;9.862;2023-02-19T11:01:21;102248.66;;;5.87;88.73
23241;BME280;11789;53.482;9.862;2023-02-19T11:03:51;102249.03;;;5.95;88.26
23241;BME280;11789;53.482;9.862;2023-02-19T11:06:20;102257.66;;;5.97;85.81
23241;BME280;11789;53.482;9.862;2023-02-19T11:09:00;102260.97;;;6.15;88.06
23241;BME280;11789;53.482;9.862;2023-02-19T11:11:31;102272.75;;;6.10;86.58
23241;BME280;11789;53.482;9.862;2023-02-19T11:14:00;102269.22;;;6.08;83.97
23241;BME280;11789;53.482;9.862;2023-02-19T11:16:41;102268.75;;;5.96;84.61
23241;BME280;11789;53.482;9.862;2023-02-19T11:19:21;102259.25;;;5.93;86.67
23241;BME280;11789;53.482;9.862;2023-02-19T11:21:48;102268.03;;;5.79;85.47
23241;BME280;11789;53.482;9.862;2023-02-19T11:24:29;102268.03;;;5.79;83.75
23241;BME280;11789;53.482;9.862;2023-02-19T11:26:56;102265.56;;;5.82;84.64
23241;BME280;11789;53.482;9.862;2023-02-19T11:29:23;102273.03;;;5.76;78.63
23241;BME280;11789;53.482;9.862;2023-02-19T11:31:52;102271.84;;;5.68;79.67
23241;BME280;11789;53.482;9.862;2023-02-19T11:37:09;102280.91;;;5.60;81.47
23241;BME280;11789;53.482;9.862;2023-02-19T11:39:35;102273.06;;;5.57;81.30
23241;BME280;11789;53.482;9.862;2023-02-19T11:55:44;102286.91;;;5.81;76.33
23241;BME280;11789;53.482;9.862;2023-02-19T11:58:38;102288.66;;;5.82;78.27
23241;BME280;11789;53.482;9.862;2023-02-19T12:09:39;102276.72;;;5.83;78.10
23241;BME280;11789;53.482;9.862;2023-02-19T12:14:43;102283.00;;;5.89;78.42
23241;BME280;11789;53.482;9.862;2023-02-19T12:31:21;102287.16;;;6.07;79.45
23241;BME280;11789;53.482;9.862;2023-02-19T12:36:39;102306.75;;;6.05;78.52
23241;BME280;11789;53.482;9.862;2023-02-19T12:39:22;102309.56;;;6.11;77.74
23241;BME280;11789;53.482;9.862;2023-02-19T12:42:10;102301.03;;;6.12;74.95
23241;BME280;11789;53.482;9.862;2023-02-19T12:47:03;102306.69;;;6.24;75.58
23241;BME280;11789;53.482;9.862;2023-02-19T12:49:36;102305.00;;;6.24;75.31
23241;BME280;11789;53.482;9.862;2023-02-19T12:52:18;102304.81;;;6.20;74.89
23241;BME280;11789;53.482;9.862;2023-02-19T12:54:49;102305.25;;;6.10;75.99
23241;BME280;11789;53.482;9.862;2023-02-19T12:57:22;102312.97;;;6.10;76.60
23241;BME280;11789;53.482;9.862;2023-02-19T13:00:03;102309.25;;;6.03;75.52
23241;BME280;11789;53.482;9.862;2023-02-19T13:05:52;102288.47;;;5.97;76.18
23241;BME280;11789;53.482;9.862;2023-02-19T13:08:30;102290.16;;;5.96;77.60
23241;BME280;11789;53.482;9.862;2023-02-19T13:11:01;102291.78;;;5.94;78.39
23241;BME280;11789;53.482;9.862;2023-02-19T13:13:37;102291.84;;;5.96;78.50
23241;BME280;11789;53.482;9.862;2023-02-19T13:16:10;102284.97;;;5.95;75.40
23241;BME280;11789;53.482;9.862;2023-02-19T13:18:44;102280.84;;;5.98;73.79
23241;BME280;11789;53.482;9.862;2023-02-19T13:21:12;102280.13;;;6.03;74.53
23241;BME280;11789;53.482;9.862;2023-02-19T13:24:00;102279.50;;;6.08;75.20
23241;BME280;11789;53.482;9.862;2023-02-19T13:27:13;102284.56;;;6.07;74.05
23241;BME280;11789;53.482;9.862;2023-02-19T13:30:10;102275.88;;;6.03;74.67
23241;BME280;11789;53.482;9.862;2023-02-19T13:36:04;102285.41;;;6.06;76.49
23241;BME280;11789;53.482;9.862;2023-02-19T13:38:37;102290.41;;;6.03;75.32
23241;BME280;11789;53.482;9.862;2023-02-19T13:41:04;102294.56;;;5.99;75.29
23241;BME280;11789;53.482;9.862;2023-02-19T13:43:35;102276.59;;;5.99;76.07
23241;BME280;11789;53.482;9.862;2023-02-19T13:46:07;102275.62;;;5.97;75.39
23241;BME280;11789;53.482;9.862;2023-02-19T13:48:37;102262.69;;;5.94;75.52
23241;BME280;11789;53.482;9.862;2023-02-19T13:59:34;102298.53;;;5.92;76.23
23241;BME280;11789;53.482;9.862;2023-02-19T14:04:46;102298.41;;;5.89;75.95
23241;BME280;11789;53.482;9.862;2023-02-19T14:19:52;102313.66;;;5.86;76.82
23241;BME280;11789;53.482;9.862;2023-02-19T14:28:20;102297.75;;;5.74;77.05
23241;BME280;11789;53.482;9.862;2023-02-19T14:30:50;102300.25;;;5.72;77.06
23241;BME280;11789;53.482;9.862;2023-02-19T14:33:20;102297.63;;;5.71;77.12
23241;BME280;11789;53.482;9.862;2023-02-19T14:35:50;102291.56;;;5.69;77.42
23241;BME280;11789;53.482;9.862;2023-02-19T14:38:21;102287.50;;;5.74;78.14
23241;BME280;11789;53.482;9.862;2023-02-19T14:40:49;102294.56;;;5.80;79.30
23241;BME280;11789;53.482;9.862;2023-02-19T14:43:18;102296.38;;;5.82;79.21
23241;BME280;11789;53.482;9.862;2023-02-19T14:45:52;102286.38;;;5.88;78.77
23241;BME280;11789;53.482;9.862;2023-02-19T14:50:57;102282.84;;;5.86;78.22
23241;BME280;11789;53.482;9.862;2023-02-19T14:53:24;102274.16;;;5.83;78.63
23241;BME280;11789;53.482;9.862;2023-02-19T14:55:53;102272.34;;;5.80;79.30
23241;BME280;11789;53.482;9.862;2023-02-19T14:58:23;102267.06;;;5.77;80.04
23241;BME280;11789;53.482;9.862;2023-02-19T15:00:50;102274.53;;;5.71;80.13